Time;durP1;ratioP1;P1;durP2;ratioP2;P2;SDS_P1;SDS_P2;PMS_P1;PMS_P2;Temp;Humidity;BMP_temperature;BMP_pressure;BME280_temperature;BME280_humidity;BME280_pressure;Samples;Min_cycle;Max_cycle;Signal;HPM_P1;HPM_P2
2022/09/05 00:03:22;;;;;;;6.07;3.55;;;;;;;;;;6288127;22;20015;-90
2022/09/05 00:05:48;;;;;;;5.28;3.40;;;;;;;;;;6230541;22;20022;-88
2022/09/05 00:08:21;;;;;;;4.50;3.65;;;;;;;;;;6257164;22;20378;-89
2022/09/05 00:11:26;;;;;;;6.18;3.42;;;;;;;;;;6254852;22;20023;-88
2022/09/05 00:14:21;;;;;;;5.97;3.88;;;;;;;;;;6256955;22;20028;-88
2022/09/05 00:20:22;;;;;;;10.20;4.28;;;19.80;99.90;;;;;;6282384;22;19915;-90
2022/09/05 00:23:01;;;;;;;4.75;3.60;;;;;;;;;;6228662;22;20110;-90
2022/09/05 00:26:08;;;;;;;4.43;3.42;;;;;;;;;;6250330;23;20024;-90
2022/09/05 00:29:10;;;;;;;8.02;3.88;;;;;;;;;;6279406;22;20079;-88
2022/09/05 00:32:00;;;;;;;6.70;3.75;;;;;;;;;;6136942;23;20017;-87
2022/09/05 00:34:53;;;;;;;8.75;3.80;;;;;;;;;;6136318;23;20028;-87
2022/09/05 00:37:44;;;;;;;8.27;4.07;;;;;;;;;;6224991;22;20106;-88
2022/09/05 00:40:19;;;;;;;7.32;3.25;;;;;;;;;;6252907;22;20032;-87
2022/09/05 00:42:49;;;;;;;6.35;3.85;;;;;;;;;;6280716;22;20024;-88
2022/09/05 00:45:50;;;;;;;7.18;3.35;;;;;;;;;;6230418;22;20030;-89
2022/09/05 00:52:09;;;;;;;10.05;4.15;;;;;;;;;;6189388;23;20018;-87
2022/09/05 00:55:21;;;;;;;6.05;3.72;;;19.50;99.90;;;;;;6136059;23;20103;-88
2022/09/05 01:04:32;;;;;;;5.65;3.60;;;;;;;;;;6186842;23;20053;-89
2022/09/05 01:07:23;;;;;;;4.10;3.67;;;;;;;;;;6279147;22;20015;-88
2022/09/05 01:12:34;;;;;;;7.85;3.92;;;;;;;;;;6272364;22;20106;-90
2022/09/05 01:15:22;;;;;;;5.65;4.22;;;;;;;;;;6226811;22;20045;-90
2022/09/05 01:18:07;;;;;;;5.50;3.75;;;;;;;;;;6228346;22;20054;-88
2022/09/05 01:20:55;;;;;;;7.85;3.67;;;;;;;;;;6278251;22;20090;-89
2022/09/05 01:23:40;;;;;;;8.48;3.53;;;;;;;;;;6253675;22;20019;-89
2022/09/05 01:26:34;;;;;;;6.95;3.88;;;;;;;;;;6224366;22;20027;-88
2022/09/05 01:29:01;;;;;;;7.25;3.97;;;;;;;;;;6228777;22;20027;-89
2022/09/05 01:35:21;;;;;;;9.63;3.85;;;;;;;;;;6255344;22;20027;-88
2022/09/05 01:38:09;;;;;;;3.95;3.63;;;;;;;;;;6230661;22;20023;-89
2022/09/05 01:41:03;;;;;;;8.45;4.00;;;;;;;;;;6281403;22;20077;-89
2022/09/05 01:43:41;;;;;;;10.45;3.72;;;;;;;;;;6231676;22;20412;-89
2022/09/05 01:49:33;;;;;;;9.23;4.22;;;;;;;;;;6254693;22;20027;-88
2022/09/05 01:52:33;;;;;;;5.95;3.60;;;;;;;;;;6230486;22;20457;-88
2022/09/05 01:55:18;;;;;;;5.40;3.05;;;;;;;;;;6228202;22;20020;-89
2022/09/05 01:58:03;;;;;;;4.45;3.67;;;;;;;;;;6229774;22;20064;-90
2022/09/05 02:04:07;;;;;;;4.85;3.35;;;;;;;;;;6255192;22;20028;-91
2022/09/05 02:10:11;;;;;;;4.07;3.67;;;;;;;;;;6236020;22;20026;-90
2022/09/05 02:42:50;;;;;;;;;;;;;;;;;;;;;
2022/09/05 02:46:00;;;;;;;4.20;3.35;;;;;;;;;;6281863;22;20031;-87
2022/09/05 02:48:58;;;;;;;3.58;3.28;;;;;;;;;;6229517;22;20042;-87
2022/09/05 02:51:44;;;;;;;9.25;3.60;;;;;;;;;;6228978;22;20019;-86
2022/09/05 02:54:41;;;;;;;4.63;3.67;;;;;;;;;;6135219;23;20021;-85
2022/09/05 02:57:26;;;;;;;4.85;3.40;;;;;;;;;;6158924;23;20017;-86
2022/09/05 03:00:28;;;;;;;6.85;3.67;;;;;;;;;;6209382;22;20024;-87
2022/09/05 03:03:11;;;;;;;3.90;3.60;;;;;;;;;;6231174;22;20067;-88
2022/09/05 03:06:11;;;;;;;6.40;4.00;;;;;;;;;;6227982;22;20030;-88
2022/09/05 03:12:28;;;;;;;5.60;3.88;;;;;;;;;;6233117;22;20697;-87
2022/09/05 03:14:54;;;;;;;6.20;4.00;;;;;;;;;;6228729;22;20051;-87
2022/09/05 03:17:48;;;;;;;7.50;4.10;;;;;;;;;;6254339;22;20020;-87
2022/09/05 03:20:21;;;;;;;;;;;;;;;;;;6226660;22;20024;-88
2022/09/05 03:22:47;;;;;;;6.53;3.80;;;;;;;;;;6227177;22;19986;-90
2022/09/05 03:25:48;;;;;;;4.53;3.95;;;;;;;;;;6226983;22;20018;-86
2022/09/05 03:28:52;;;;;;;6.18;3.50;;;;;;;;;;6229443;22;20019;-89
2022/09/05 03:31:50;;;;;;;6.35;3.63;;;;;;;;;;6248347;22;20147;-87
2022/09/05 03:34:35;;;;;;;5.20;3.65;;;;;;;;;;6252744;22;20424;-88
2022/09/05 03:37:37;;;;;;;9.40;3.83;;;;;;;;;;6226406;22;20058;-90
2022/09/05 03:40:38;;;;;;;4.53;4.07;;;;;;;;;;6227676;22;20345;-89
2022/09/05 03:43:24;;;;;;;9.93;4.00;;;;;;;;;;6251048;22;20020;-85
2022/09/05 03:46:43;;;;;;;6.38;3.67;;;;;;;;;;6230493;22;20016;-88
2022/09/05 03:49:28;;;;;;;4.95;4.05;;;;;;;;;;6252733;22;20023;-90
2022/09/05 03:52:25;;;;;;;5.97;4.13;;;;;;;;;;6226339;22;20023;-89
2022/09/05 03:55:11;;;;;;;4.53;3.95;;;;;;;;;;6251119;22;20020;-89
2022/09/05 03:58:12;;;;;;;4.05;3.67;;;;;;;;;;6225836;22;20024;-87
2022/09/05 04:00:57;;;;;;;5.35;4.18;;;;;;;;;;6252661;22;20035;-89
2022/09/05 04:03:54;;;;;;;5.57;3.90;;;;;;;;;;6228201;22;20016;-88
2022/09/05 04:06:39;;;;;;;4.78;3.92;;;;;;;;;;6255708;22;20023;-88
2022/09/05 04:09:24;;;;;;;5.63;4.25;;;;;;;;;;6228201;22;20016;-90
2022/09/05 04:12:21;;;;;;;5.15;3.90;;;;;;;;;;6230131;22;20015;-91
2022/09/05 04:15:03;;;;;;;6.40;4.10;;;;;;;;;;6227616;22;20103;-88
2022/09/05 04:17:45;;;;;;;5.82;4.10;;;;;;;;;;6254335;22;20020;-89
2022/09/05 04:20:48;;;;;;;4.95;4.07;;;;;;;;;;6279222;22;20161;-89
2022/09/05 04:23:33;;;;;;;4.32;3.72;;;;;;;;;;6228887;22;20019;-87
2022/09/05 04:26:05;;;;;;;4.68;3.60;;;;;;;;;;6228191;22;20019;-89
2022/09/05 04:28:37;;;;;;;8.68;4.35;;;;;;;;;;6229859;22;20401;-88
2022/09/05 04:31:19;;;;;;;4.00;3.55;;;;;;;;;;6252356;22;20046;-88
2022/09/05 04:34:10;;;;;;;6.00;3.83;;;;;;;;;;6229329;22;20015;-88
2022/09/05 04:36:38;;;;;;;4.68;4.20;;;;;;;;;;6280534;22;20019;-89
2022/09/05 04:39:19;;;;;;;5.30;4.60;;;;;;;;;;6229173;22;20020;-87
2022/09/05 04:42:04;;;;;;;3.97;3.47;;;;;;;;;;6227593;22;20023;-89
2022/09/05 04:44:43;;;;;;;7.78;4.20;;;;;;;;;;6248554;23;20020;-87
2022/09/05 04:47:49;;;;;;;4.43;3.92;;;;;;;;;;6223585;23;20034;-86
2022/09/05 04:50:53;;;;;;;6.97;3.90;;;;;;;;;;6225210;23;20392;-88
2022/09/05 04:53:39;;;;;;;4.00;3.70;;;;;;;;;;6197808;23;20012;-89
2022/09/05 04:56:36;;;;;;;5.13;3.70;;;;;;;;;;6187390;23;20080;-87
2022/09/05 04:59:07;;;;;;;4.82;3.72;;;;;;;;;;6161072;23;20039;-88
2022/09/05 05:01:46;;;;;;;6.75;4.38;;;;;;;;;;6160839;23;20113;-88
2022/09/05 05:04:15;;;;;;;5.68;4.00;;;;;;;;;;6165545;23;20042;-88
2022/09/05 05:07:15;;;;;;;5.75;4.00;;;;;;;;;;6161685;23;20061;-90
2022/09/05 05:10:10;;;;;;;8.88;3.70;;;;;;;;;;6163402;23;20184;-90
2022/09/05 05:12:57;;;;;;;4.53;4.13;;;;;;;;;;6049977;23;20018;-90
2022/09/05 05:15:25;;;;;;;4.65;3.72;;;;;;;;;;6053457;23;20077;-90
2022/09/05 05:18:03;;;;;;;8.48;4.25;;;;;;;;;;6113206;23;20583;-89
2022/09/05 05:20:34;;;;;;;6.10;3.97;;;;;;;;;;6162215;23;20052;-87
2022/09/05 05:23:16;;;;;;;4.70;3.58;;;;;;;;;;6158932;23;20154;-87
2022/09/05 05:25:56;;;;;;;4.75;4.28;;;;;;;;;;6159399;23;20028;-87
2022/09/05 05:28:56;;;;;;;6.93;3.92;;;;;;;;;;6246694;23;20445;-87
2022/09/05 05:31:58;;;;;;;5.97;3.90;;;;;;;;;;6195393;23;20065;-86
2022/09/05 05:34:40;;;;;;;5.00;3.95;;;;;;;;;;6153704;23;20029;-86
2022/09/05 05:37:43;;;;;;;4.85;3.80;;;;;;;;;;6129428;23;20029;-89
2022/09/05 05:40:29;;;;;;;4.82;3.80;;;;;;;;;;6129766;23;20025;-86
2022/09/05 05:43:28;;;;;;;4.63;3.30;;;;;;;;;;6129415;23;20025;-88
2022/09/05 05:49:13;;;;;;;6.53;3.67;;;;;;;;;;6182683;23;20067;-88
2022/09/05 05:52:13;;;;;;;4.20;3.80;;;;;;;;;;6156907;23;20029;-87
2022/09/05 05:54:39;;;;;;;5.35;4.10;;;;;;;;;;6162544;23;20473;-88
2022/09/05 05:57:22;;;;;;;6.75;4.57;;;;;;;;;;6197225;23;20024;-88
2022/09/05 06:00:21;;;;;;;6.95;4.20;;;;;;;;;;6220134;23;20803;-89
2022/09/05 06:03:23;;;;;;;9.27;4.32;;;;;;;;;;6248693;23;20024;-90
2022/09/05 06:06:26;;;;;;;6.43;3.95;;;;;;;;;;6194212;23;20019;-89
2022/09/05 06:09:07;;;;;;;8.23;4.82;;;;;;;;;;6196979;23;20400;-89
2022/09/05 06:15:32;;;;;;;5.28;3.53;;;18.00;99.90;;;;;;6129841;23;20032;-89
2022/09/05 06:18:18;;;;;;;6.57;3.80;;;;;;;;;;6132810;23;20035;-88
2022/09/05 06:21:18;;;;;;;6.03;4.13;;;;;;;;;;6130097;23;20087;-90
2022/09/05 06:24:03;;;;;;;5.57;3.80;;;;;;;;;;6133979;23;20108;-90
2022/09/05 06:27:51;;;;;;;5.97;3.67;;;;;;;;;;6096132;23;20377;-91
2022/09/05 06:30:43;;;;;;;4.30;3.88;;;;;;;;;;6010748;23;20068;-90
2022/09/05 06:33:26;;;;;;;6.25;3.85;;;;;;;;;;5986916;23;20024;-91
2022/09/05 06:36:10;;;;;;;4.72;3.95;;;;;;;;;;5964002;23;20064;-90
2022/09/05 06:39:10;;;;;;;4.65;3.75;;;;;;;;;;5961754;23;20480;-89
2022/09/05 06:44:58;;;;;;;5.13;3.83;;;;;;;;;;6003176;23;20034;-91
2022/09/05 06:51:43;;;;;;;5.47;3.72;;;;;;;;;;6011584;23;20103;-89
2022/09/05 06:54:53;;;;;;;5.57;3.78;;;;;;;;;;5912058;24;20840;-91
2022/09/05 07:00:17;;;;;;;7.22;4.50;;;;;;;;;;6275570;22;20490;-89
2022/09/05 07:03:08;;;;;;;4.70;4.20;;;;;;;;;;6225437;22;20016;-89
2022/09/05 07:05:34;;;;;;;6.85;3.85;;;;;;;;;;6226197;22;20131;-89
2022/09/05 07:08:26;;;;;;;9.43;4.20;;;;;;;;;;6224320;22;20026;-90
2022/09/05 07:14:18;;;;;;;7.82;4.70;;;;;;;;;;6251126;22;20094;-89
2022/09/05 07:17:05;;;;;;;4.75;4.35;;;;;;;;;;6228097;22;20031;-90
2022/09/05 07:19:50;;;;;;;7.05;4.15;;;;;;;;;;6226304;22;20050;-87
2022/09/05 07:22:31;;;;;;;5.22;4.32;;;;;;;;;;6276383;22;20022;-87
2022/09/05 07:25:06;;;;;;;10.05;4.88;;;;;;;;;;6225948;22;20472;-86
2022/09/05 07:27:48;;;;;;;6.82;4.50;;;;;;;;;;6249945;22;20062;-87
2022/09/05 07:30:17;;;;;;;4.97;4.47;;;;;;;;;;6226862;22;20028;-88
2022/09/05 07:33:02;;;;;;;5.57;4.25;;;;;;;;;;6249402;22;20054;-88
2022/09/05 07:35:45;;;;;;;5.22;4.05;;;;;;;;;;6225971;22;20360;-88
2022/09/05 07:38:13;;;;;;;7.68;4.30;;;;;;;;;;6249218;22;20019;-88
2022/09/05 07:40:44;;;;;;;5.85;4.60;;;;;;;;;;6229023;22;20016;-88
2022/09/05 07:43:30;;;;;;;6.72;4.47;;;;;;;;;;6226928;22;20524;-87
2022/09/05 07:46:15;;;;;;;8.70;4.32;;;;;;;;;;6280237;22;20062;-89
2022/09/05 07:48:46;;;;;;;5.93;5.00;;;;;;;;;;6251985;22;20023;-89
2022/09/05 07:51:25;;;;;;;7.07;4.38;;;;;;;;;;6255634;22;20475;-88
2022/09/05 07:53:55;;;;;;;9.60;5.20;;;;;;;;;;6230101;22;20046;-89
2022/09/05 07:57:08;;;;;;;6.85;4.60;;;;;;;;;;6225613;22;20395;-87
2022/09/05 07:59:46;;;;;;;6.60;5.05;;;;;;;;;;6134478;23;20024;-87
2022/09/05 08:02:24;;;;;;;9.50;4.78;;;;;;;;;;6157520;23;20064;-87
2022/09/05 08:05:11;;;;;;;4.95;4.28;;;;;;;;;;6218238;22;20376;-88
2022/09/05 08:07:44;;;;;;;7.32;4.45;;;;;;;;;;6243726;22;20024;-89
2022/09/05 08:10:12;;;;;;;5.30;4.55;;;;;;;;;;6220211;23;20024;-88
2022/09/05 08:12:42;;;;;;;9.57;4.50;;;;;;;;;;6219425;23;20030;-90
2022/09/05 08:15:28;;;;;;;4.95;4.20;;;;;;;;;;6247078;22;20070;-91
2022/09/05 08:18:17;;;;;;;8.77;4.60;;;;;;;;;;6220104;23;20028;-88
2022/09/05 08:21:19;;;;;;;6.82;5.00;;;;;;;;;;6163168;23;20024;-89
2022/09/05 08:23:51;;;;;;;6.15;4.60;;;;;;;;;;6220585;23;20023;-89
2022/09/05 08:29:37;;;;;;;4.85;4.25;;;;;;;;;;6245788;22;20047;-90
2022/09/05 08:32:27;;;;;;;8.80;4.72;;;;;;;;;;6248664;22;20017;-90
2022/09/05 08:35:37;;;;;;;4.78;4.38;;;;;;;;;;6220777;23;20024;-89
2022/09/05 08:38:03;;;;;;;5.28;4.78;;;;;;;;;;6244273;22;20031;-88
2022/09/05 08:40:48;;;;;;;6.75;4.43;;;;;;;;;;6220700;23;20024;-88
2022/09/05 08:46:33;;;;;;;7.55;4.40;;;;;;;;;;6247272;22;20319;-89
2022/09/05 08:52:41;;;;;;;5.30;4.35;;;;;;;;;;6250627;23;20443;-90
2022/09/05 08:55:35;;;;;;;7.55;4.68;;;;;;;;;;6218983;23;20357;-89
2022/09/05 08:58:20;;;;;;;9.10;5.00;;;;;;;;;;6222975;23;20046;-87
2022/09/05 09:00:54;;;;;;;12.15;4.70;;;;;;;;;;6218319;23;20190;-90
2022/09/05 09:04:05;;;;;;;9.93;4.70;;;;;;;;;;6248192;23;20016;-87
2022/09/05 09:07:02;;;;;;;7.43;4.97;;;;;;;;;;6247432;23;20024;-89
2022/09/05 09:10:11;;;;;;;9.20;5.07;;;21.50;99.90;;;;;;6221834;23;20024;-89
2022/09/05 09:13:08;;;;;;;15.88;5.15;;;;;;;;;;6219848;23;20175;-89
2022/09/05 09:15:41;;;;;;;7.93;4.70;;;;;;;;;;6220847;23;20138;-88
2022/09/05 09:18:15;;;;;;;8.60;4.90;;;;;;;;;;6221629;23;20016;-90
2022/09/05 09:21:12;;;;;;;7.07;4.30;;;;;;;;;;6221457;23;20290;-89
2022/09/05 09:23:59;;;;;;;7.85;4.78;;;;;;;;;;6251080;23;20019;-88
2022/09/05 09:26:50;;;;;;;6.65;4.43;;;;;;;;;;6220691;22;20039;-90
2022/09/05 09:29:43;;;;;;;5.72;4.50;;;;;;;;;;6243632;22;20020;-90
2022/09/05 09:32:13;;;;;;;10.70;5.22;;;;;;;;;;6245957;22;20060;-89
2022/09/05 09:34:47;;;;;;;8.00;4.65;;;;;;;;;;6225878;23;20067;-88
2022/09/05 09:37:52;;;;;;;5.00;4.32;;;;;;;;;;6222771;23;20035;-88
2022/09/05 09:40:31;;;;;;;8.32;4.70;;;;;;;;;;6173516;23;20030;-90
2022/09/05 09:45:59;;;;;;;7.03;4.50;;;;;;;;;;6282029;22;20054;-89
2022/09/05 09:48:43;;;;;;;9.10;4.60;;;;;;;;;;6227353;22;20413;-91
2022/09/05 09:51:29;;;;;;;6.97;3.97;;;;;;;;;;6227335;22;20828;-89
2022/09/05 09:54:04;;;;;;;9.38;4.60;;;;;;;;;;6227858;22;20023;-89
2022/09/05 09:56:58;;;;;;;7.80;4.38;;;;;;;;;;6227458;22;20035;-88
2022/09/05 09:59:24;;;;;;;9.20;5.15;;;;;;;;;;6227546;22;20024;-88
2022/09/05 10:01:56;;;;;;;5.95;4.70;;;;;;;;;;6248583;22;20123;-90
2022/09/05 10:05:00;;;;;;;7.63;3.67;;;;;;;;;;6227873;22;20047;-90
2022/09/05 10:07:29;;;;;;;9.70;3.93;;;;;;;;;;6224030;22;20016;-90
2022/09/05 10:10:10;;;;;;;20.02;5.10;;;;;;;;;;6226899;22;20019;-90
2022/09/05 10:12:36;;;;;;;11.13;4.55;;;;;;;;;;6251374;22;20024;-89
2022/09/05 10:15:21;;;;;;;15.80;4.40;;;;;;;;;;6227001;22;20026;-89
2022/09/05 10:18:11;;;;;;;10.98;4.65;;;;;;;;;;6252097;22;20043;-89
2022/09/05 10:20:57;;;;;;;8.20;4.07;;;;;;;;;;6224469;22;20023;-91
2022/09/05 10:23:44;;;;;;;6.63;4.60;;;;;;;;;;6227744;22;20030;-91
2022/09/05 10:26:29;;;;;;;9.57;4.30;;;;;;;;;;6189121;22;20035;-89
2022/09/05 10:29:12;;;;;;;6.60;4.57;;;;;;;;;;6226854;22;20019;-88
2022/09/05 10:31:45;;;;;;;9.18;4.07;;;;;;;;;;6226555;22;20072;-89
2022/09/05 10:34:17;;;;;;;10.38;4.20;;;;;;;;;;6225361;22;20283;-89
2022/09/05 10:36:53;;;;;;;7.32;4.38;;;;;;;;;;6228109;22;20019;-90
2022/09/05 10:39:29;;;;;;;9.73;4.93;;;;;;;;;;6276657;22;20019;-88
2022/09/05 10:42:03;;;;;;;5.82;4.32;;;;;;;;;;6226550;22;20054;-89
2022/09/05 10:44:39;;;;;;;7.18;4.43;;;;;;;;;;6223339;22;20020;-89
2022/09/05 10:47:34;;;;;;;8.55;4.10;;;;;;;;;;6254038;22;20040;-90
2022/09/05 10:50:12;;;;;;;4.78;3.90;;;;;;;;;;6254687;22;20498;-89
2022/09/05 10:52:58;;;;;;;4.47;3.85;;;;;;;;;;6225826;22;20479;-89
2022/09/05 10:55:48;;;;;;;6.75;3.53;;;;;;;;;;6228519;22;20103;-92
2022/09/05 10:58:32;;;;;;;8.70;3.65;;;;;;;;;;6251527;22;20023;-89
2022/09/05 11:01:08;;;;;;;11.77;4.50;;;;;;;;;;6226542;22;20020;-88
2022/09/05 11:04:07;;;;;;;7.00;4.03;;;;;;;;;;6252507;22;20110;-86
2022/09/05 11:06:53;;;;;;;6.20;4.15;;;;;;;;;;6223747;22;20034;-87
2022/09/05 11:09:31;;;;;;;5.60;3.90;;;;;;;;;;6231915;22;20029;-87
2022/09/05 11:12:18;;;;;;;5.93;3.15;;;;;;;;;;6227467;22;20102;-86
2022/09/05 11:14:52;;;;;;;6.65;3.83;;;;;;;;;;6224898;22;20016;-87
2022/09/05 11:17:21;;;;;;;7.93;3.25;;;;;;;;;;6279183;22;20019;-90
2022/09/05 11:20:11;;;;;;;4.40;3.65;;;;;;;;;;6224624;22;20016;-89
2022/09/05 11:22:38;;;;;;;8.40;4.22;;;;;;;;;;6132234;23;20548;-89
2022/09/05 11:25:09;;;;;;;8.48;3.25;;;;;;;;;;6238624;22;20087;-89
2022/09/05 11:27:35;;;;;;;5.03;3.22;;;;;;;;;;6229312;22;20026;-89
2022/09/05 11:30:01;;;;;;;5.05;3.17;;;;;;;;;;6278845;22;20425;-89
2022/09/05 11:32:47;;;;;;;7.80;3.13;;;;;;;;;;6253442;22;20051;-90
2022/09/05 11:35:21;;;;;;;7.65;2.90;;;;;;;;;;6228684;22;20019;-89
2022/09/05 11:38:13;;;;;;;5.55;3.58;;;;;;;;;;6277506;22;20051;-89
2022/09/05 11:41:00;;;;;;;6.80;3.60;;;;;;;;;;6253526;22;20048;-89
2022/09/05 11:46:27;;;;;;;6.35;2.88;;;;;;;;;;6252904;22;20019;-90
2022/09/05 11:49:22;;;;;;;6.00;3.25;;;;;;;;;;6227569;22;20020;-90
2022/09/05 11:52:07;;;;;;;3.80;2.83;;;;;;;;;;6224672;22;20102;-87
2022/09/05 11:55:04;;;;;;;7.47;3.10;;;;;;;;;;6228536;22;20045;-87
2022/09/05 11:57:37;;;;;;;5.85;2.83;;;;;;;;;;6226337;22;20024;-87
2022/09/05 12:00:11;;;;;;;9.60;2.90;;;;;;;;;;6254155;22;20023;-90
2022/09/05 12:02:40;;;;;;;8.85;2.83;;;;;;;;;;6252611;22;20020;-90
2022/09/05 12:05:14;;;;;;;3.55;2.80;;;;;;;;;;6279349;22;20015;-89
2022/09/05 12:07:56;;;;;;;6.55;2.60;;;;;;;;;;6279888;22;20158;-88
2022/09/05 12:10:39;;;;;;;3.55;2.60;;;;;;;;;;6278260;22;20072;-89
2022/09/05 12:13:18;;;;;;;4.30;2.38;;;;;;;;;;6252672;22;20023;-88
2022/09/05 12:15:45;;;;;;;3.10;2.70;;;;;;;;;;6224791;22;20460;-88
2022/09/05 12:18:42;;;;;;;3.63;2.58;;;;;;;;;;6278217;22;20519;-88
2022/09/05 12:21:30;;;;;;;7.93;3.10;;;;;;;;;;6226467;22;20023;-91
2022/09/05 12:24:15;;;;;;;5.50;2.70;;;;;;;;;;6249042;22;20020;-90
2022/09/05 12:26:42;;;;;;;3.35;2.67;;;;;;;;;;6227705;22;20015;-91
2022/09/05 12:29:17;;;;;;;4.88;2.70;;;;;;;;;;6251374;22;20065;-91
2022/09/05 12:31:43;;;;;;;6.30;2.70;;;;;;;;;;6228016;22;20663;-90
2022/09/05 12:34:17;;;;;;;5.20;3.00;;;;;;;;;;6256813;22;20768;-90
2022/09/05 12:36:46;;;;;;;6.03;2.60;;;;;;;;;;6229648;22;20468;-90
2022/09/05 12:39:31;;;;;;;5.22;2.63;;;;;;;;;;6283768;22;20015;-91
2022/09/05 12:42:18;;;;;;;4.45;2.53;;;;;;;;;;6230454;22;20023;-90
2022/09/05 12:44:44;;;;;;;11.00;3.30;;;;;;;;;;6282595;22;20015;-91
2022/09/05 12:47:11;;;;;;;9.90;2.83;;;;;;;;;;6231226;22;20466;-90
2022/09/05 12:49:55;;;;;;;5.32;2.88;;;;;;;;;;6230919;22;20016;-91
2022/09/05 12:52:36;;;;;;;5.22;2.40;;;;;;;;;;6279647;22;20026;-91
2022/09/05 12:58:14;;;;;;;6.43;2.45;;;;;;;;;;6282684;22;20030;-91
2022/09/05 13:00:44;;;;;;;7.57;3.05;;;;;;;;;;6230511;22;20083;-91
2022/09/05 13:03:29;;;;;;;3.38;2.30;;;;;;;;;;6233927;22;20020;-92
2022/09/05 13:06:05;;;;;;;4.43;2.28;;;;;;;;;;6233838;22;20062;-89
2022/09/05 13:11:45;;;;;;;5.93;2.10;;;;;;;;;;6260861;22;21008;-90
2022/09/05 13:14:46;;;;;;;6.70;2.72;;;;;;;;;;6231026;22;20026;-90
2022/09/05 13:17:18;;;;;;;6.75;2.33;;;;;;;;;;6245178;22;20016;-92
2022/09/05 13:22:39;;;;;;;3.58;2.55;;;;;;;;;;6284952;22;20042;-89
2022/09/05 13:25:09;;;;;;;8.68;2.70;;;;;;;;;;6256676;22;20058;-89
2022/09/05 13:27:39;;;;;;;5.18;2.47;;;;;;;;;;6232405;22;20031;-89
2022/09/05 13:30:21;;;;;;;7.72;2.60;;;;;;;;;;6231291;22;20022;-90
2022/09/05 13:32:50;;;;;;;6.00;2.70;;;;;;;;;;6230958;22;20026;-89
2022/09/05 13:35:23;;;;;;;4.78;2.50;;;;;;;;;;6231753;22;20071;-90
2022/09/05 13:38:01;;;;;;;4.75;2.80;;;;;;;;;;6259000;22;20083;-91
2022/09/05 13:40:37;;;;;;;5.07;2.20;;;;;;;;;;6233275;22;20019;-91
2022/09/05 13:43:12;;;;;;;6.30;2.40;;;;;;;;;;6229449;22;20077;-88
2022/09/05 13:45:52;;;;;;;4.32;2.53;;;;;;;;;;6231189;22;20023;-88
2022/09/05 13:48:57;;;;;;;5.45;2.50;;;31.80;99.90;;;;;;6230469;22;20024;-89
2022/09/05 13:51:27;;;;;;;5.47;2.30;;;;;;;;;;6232649;22;20024;-87
2022/09/05 13:54:17;;;;;;;5.75;2.42;;;;;;;;;;6230105;22;20039;-88
2022/09/05 13:57:06;;;;;;;7.85;5.10;;;;;;;;;;6257650;22;20094;-88
2022/09/05 14:00:02;;;;;;;6.03;2.30;;;;;;;;;;6228982;22;20106;-90
2022/09/05 14:02:37;;;;;;;5.97;2.47;;;;;;;;;;6232649;22;20090;-88
2022/09/05 14:05:18;;;;;;;8.25;2.28;;;;;;;;;;6256892;22;20020;-87
2022/09/05 14:08:15;;;;;;;7.32;2.20;;;;;;;;;;6230599;22;20425;-88
2022/09/05 14:11:24;;;;;;;5.82;2.15;;;;;;;;;;6229986;22;20440;-88
2022/09/05 14:14:15;;;;;;;4.05;2.30;;;;;;;;;;6230848;22;20022;-90
2022/09/05 14:16:48;;;;;;;8.27;2.10;;;;;;;;;;6226340;22;20041;-90
2022/09/05 14:22:11;;;;;;;2.50;1.92;;;;;;;;;;6248822;23;20492;-89
2022/09/05 14:24:49;;;;;;;5.20;2.25;;;;;;;;;;6225366;23;20050;-89
2022/09/05 14:27:31;;;;;;;4.47;2.20;;;;;;;;;;6225841;23;20031;-90
2022/09/05 14:30:10;;;;;;;7.57;2.30;;;;;;;;;;6249730;23;20039;-90
2022/09/05 14:33:09;;;;;;;6.80;2.40;;;;;;;;;;6224102;23;20024;-89
2022/09/05 14:36:10;;;;;;;;;;;;;;;;;;;;;
2022/09/05 14:46:20;;;;;;;;;;;;;;;;;;;;;
2022/09/05 14:55:39;;;;;;;4.30;1.90;;;;;;;;;;6220176;23;20078;-90
2022/09/05 14:58:29;;;;;;;3.80;2.10;;;;;;;;;;6221414;23;20543;-90
2022/09/05 15:01:34;;;;;;;2.53;2.10;;;;;;;;;;6225830;23;20046;-88
2022/09/05 15:04:00;;;;;;;6.60;2.03;;;;;;;;;;6210945;23;20452;-90
2022/09/05 15:06:33;;;;;;;2.42;2.00;;;;;;;;;;6225472;23;20016;-89
2022/09/05 15:09:04;;;;;;;2.28;2.00;;;;;;;;;;6221267;23;20035;-89
2022/09/05 15:15:08;;;;;;;2.42;2.10;;;;;;;;;;6131518;23;20446;-91
2022/09/05 15:17:34;;;;;;;2.55;1.90;;;;;;;;;;6189884;23;20394;-88
2022/09/05 15:20:09;;;;;;;4.00;1.95;;;;;;;;;;6223919;23;20076;-90
2022/09/05 15:22:41;;;;;;;2.80;1.90;;;;;;;;;;6249906;23;20441;-91
2022/09/05 15:28:36;;;;;;;5.38;2.17;;;;;;;;;;6245284;23;20135;-90
2022/09/05 15:31:18;;;;;;;3.33;1.98;;;;;;;;;;6224751;23;20410;-90
2022/09/05 15:37:00;;;;;;;4.70;1.58;;;;;;;;;;6252590;23;20079;-89
2022/09/05 15:40:03;;;;;;;3.55;2.03;;;;;;;;;;6228495;23;20334;-91
2022/09/05 15:45:48;;;;;;;2.72;1.90;;;;;;;;;;6249792;23;19985;-91
2022/09/05 15:48:27;;;;;;;3.67;2.30;;;;;;;;;;6250088;23;20026;-91
2022/09/05 15:51:26;;;;;;;2.35;1.90;;;;;;;;;;6222940;23;20024;-90
2022/09/05 15:54:18;;;;;;;2.80;2.15;;;;;;;;;;6249473;23;20046;-92
2022/09/05 15:57:36;;;;;;;7.40;2.05;;;;;;;;;;6166548;23;20043;-93
2022/09/05 16:00:47;;;;;;;;;;;;;;;;;;;;;
2022/09/05 16:03:47;;;;;;;2.50;2.15;;;;;;;;;;6228626;22;20015;-90
2022/09/05 16:06:51;;;;;;;;;;;;;;;;;;;;;
2022/09/05 16:09:43;;;;;;;9.57;2.33;;;;;;;;;;6157621;23;20026;-91
2022/09/05 16:12:47;;;;;;;4.97;2.60;;;;;;;;;;6136345;23;20065;-90
2022/09/05 16:15:50;;;;;;;3.00;2.30;;;;;;;;;;6109879;23;20632;-91
2022/09/05 16:18:37;;;;;;;4.63;2.17;;;;;;;;;;6131741;23;20022;-92
2022/09/05 16:21:54;;;;;;;;;;;;;;;;;;;;;
2022/09/05 16:25:18;;;;;;;6.43;2.40;;;;;;;;;;5983637;24;20038;-89
2022/09/05 16:38:54;;;;;;;;;;;;;;;;;;;;;
2022/09/05 16:45:12;;;;;;;5.50;2.50;;;;;;;;;;5828116;24;20036;-91
2022/09/05 16:54:55;;;;;;;3.03;2.55;;;;;;;;;;5880076;24;20074;-91
2022/09/05 17:01:06;;;;;;;8.55;2.33;;;;;;;;;;5795124;24;20035;-93
2022/09/05 17:03:45;;;;;;;5.70;2.15;;;;;;;;;;5769727;24;20062;-89
2022/09/05 17:06:26;;;;;;;10.60;2.72;;;;;;;;;;5821531;24;20066;-90
2022/09/05 17:09:11;;;;;;;7.40;2.58;;;;;;;;;;5932737;24;20060;-89
2022/09/05 17:12:08;;;;;;;;;;;;;;;;;;6010751;23;20044;-91
2022/09/05 17:14:52;;;;;;;8.90;2.53;;;;;;;;;;6030799;23;19917;-91
2022/09/05 17:17:57;;;;;;;7.05;2.63;;;;;;;;;;6106298;23;20077;-92
2022/09/05 17:20:36;;;;;;;9.88;2.20;;;;;;;;;;6050488;23;20444;-90
2022/09/05 17:23:17;;;;;;;9.43;2.70;;;;;;;;;;6074961;23;20142;-92
2022/09/05 17:26:00;;;;;;;4.95;2.30;;;;;;;;;;6081031;23;20682;-91
2022/09/05 17:28:44;;;;;;;5.10;2.55;;;;;;;;;;6105073;23;20114;-92
2022/09/05 17:31:40;;;;;;;9.32;2.60;;;;;;;;;;6128573;23;20166;-91
2022/09/05 17:34:24;;;;;;;5.25;2.50;;;;;;;;;;6141234;23;20025;-90
2022/09/05 17:37:09;;;;;;;11.35;2.47;;;;;;;;;;6192042;23;20031;-91
2022/09/05 17:39:54;;;;;;;10.70;2.53;;;;;;;;;;6204378;23;20017;-90
2022/09/05 17:42:51;;;;;;;9.82;2.67;;;;;;;;;;6197993;23;20062;-91
2022/09/05 17:45:38;;;;;;;11.82;2.40;;;;;;;;;;6226228;23;20020;-90
2022/09/05 17:48:36;;;;;;;13.25;3.10;;;;;;;;;;6252087;23;20027;-92
2022/09/05 17:51:02;;;;;;;9.50;2.90;;;;;;;;;;6251571;23;20020;-91
2022/09/05 17:54:43;;;;;;;7.32;3.20;;;;;;;;;;6226487;23;20027;-92
2022/09/05 17:57:24;;;;;;;8.23;2.80;;;;;;;;;;6208936;23;20657;-92
2022/09/05 18:00:05;;;;;;;7.20;2.70;;;;;;;;;;6200893;23;20020;-93
2022/09/05 18:02:51;;;;;;;5.35;2.53;;;;;;;;;;6224197;23;20060;-91
2022/09/05 18:05:49;;;;;;;6.82;2.60;;;;;;;;;;6203422;23;20077;-91
2022/09/05 18:08:35;;;;;;;9.48;2.78;;;;;;;;;;6199366;23;20020;-92
2022/09/05 18:17:41;;;;;;;6.53;2.90;;;;;;;;;;6250647;23;20460;-92
2022/09/05 18:30:28;;;;;;;3.90;2.63;;;;;;;;;;6253899;22;20024;-92
2022/09/05 18:33:24;;;;;;;;;;;;;;;;;;;;;
2022/09/05 18:35:57;;;;;;;3.83;2.63;;;;;;;;;;6251540;22;20016;-87
2022/09/05 18:38:55;;;;;;;7.68;2.75;;;;;;;;;;6228516;22;20037;-90
2022/09/05 18:41:40;;;;;;;7.38;2.95;;;;;;;;;;6230991;22;20022;-89
2022/09/05 18:44:23;;;;;;;7.82;3.10;;;;;;;;;;6231067;22;20094;-91
2022/09/05 18:46:54;;;;;;;3.65;2.60;;;;;;;;;;6230354;22;20020;-86
2022/09/05 18:49:47;;;;;;;5.10;2.70;;;;;;;;;;6226596;22;20027;-88
2022/09/05 18:52:17;;;;;;;13.33;2.93;;;;;;;;;;6279426;22;20019;-88
2022/09/05 18:54:44;;;;;;;3.42;2.80;;;;;;;;;;6251672;22;20022;-88
2022/09/05 18:57:45;;;;;;;10.70;2.97;;;;;;;;;;6229006;22;20103;-88
2022/09/05 19:00:39;;;;;;;5.90;3.20;;;;;;;;;;6223914;22;20111;-88
2022/09/05 19:03:34;;;;;;;4.28;3.10;;;;;;;;;;6227743;22;20027;-86
2022/09/05 19:06:19;;;;;;;5.93;3.20;;;;;;;;;;6276875;22;20016;-88
2022/09/05 19:09:02;;;;;;;20.27;3.58;;;;;;;;;;6251638;22;20016;-89
2022/09/05 19:12:00;;;;;;;;;;;24.10;99.90;;;;;;6250150;22;20064;-86
2022/09/05 19:14:45;;;;;;;7.65;3.20;;;;;;;;;;6229226;22;19915;-91
2022/09/05 19:20:17;;;;;;;10.65;3.20;;;;;;;;;;6252363;22;20023;-90
2022/09/05 19:23:12;;;;;;;4.70;2.85;;;;;;;;;;6229632;22;20023;-89
2022/09/05 19:26:03;;;;;;;6.45;3.47;;;;;;;;;;6279748;22;20325;-89
2022/09/05 19:28:54;;;;;;;6.60;3.30;;;;;;;;;;6229622;22;20404;-91
2022/09/05 19:31:35;;;;;;;10.50;3.45;;;;;;;;;;6228608;22;20023;-88
2022/09/05 19:34:22;;;;;;;8.15;3.95;;;;;;;;;;6254712;22;20015;-88
2022/09/05 19:37:20;;;;;;;6.53;3.60;;;;;;;;;;6189594;23;20107;-89
2022/09/05 19:40:00;;;;;;;9.75;3.63;;;;;;;;;;6219020;23;20025;-89